Time;durP1;ratioP1;P1;durP2;ratioP2;P2;SDS_P1;SDS_P2;PMS_P1;PMS_P2;Temp;Humidity;BMP_temperature;BMP_pressure;BME280_temperature;BME280_humidity;BME280_pressure;Samples;Min_cycle;Max_cycle;Signal;HPM_P1;HPM_P2
2023/01/10 00:01:39;;;;;;;35.65;33.15;;;;;;;;;;5042549;22;20520;-59
2023/01/10 00:04:05;;;;;;;36.10;33.63;;;;;;;;;;5031777;28;20029;-62
2023/01/10 00:06:31;;;;;;;35.28;32.88;;;;;;;;;;5033430;28;20040;-60
2023/01/10 00:08:58;;;;;;;35.60;33.20;;;;;;;;;;5033955;28;20017;-56
2023/01/10 00:14:10;;;;;;;35.47;33.00;;;;;;;;;;5033900;28;20055;-62
2023/01/10 00:16:38;;;;;;;35.58;33.08;;;;;;;;;;5033702;28;20033;-59
2023/01/10 00:19:04;;;;;;;34.67;32.28;;;;;;;;;;5032655;28;20021;-61
2023/01/10 00:21:30;;;;;;;35.70;33.20;;;;;;;;;;5033724;28;20120;-58
2023/01/10 00:24:17;;;;;;;34.90;32.50;;;;;;;;;;5032884;28;20033;-58
2023/01/10 00:26:45;;;;;;;34.22;31.83;;;;;;;;;;5033028;28;20092;-55
2023/01/10 00:29:11;;;;;;;34.25;31.85;;;;;;;;;;5032671;28;20028;-61
2023/01/10 00:31:37;;;;;;;34.15;31.75;;;;;;;;;;5033712;28;20614;-59
2023/01/10 00:34:03;;;;;;;33.97;31.58;;;;;;;;;;5033268;28;20029;-60
2023/01/10 00:36:29;;;;;;;34.25;31.85;;;;;;;;;;5033526;28;20048;-53
2023/01/10 00:38:55;;;;;;;34.65;32.25;;;;;;;;;;5033377;28;20033;-59
2023/01/10 00:44:07;;;;;;;32.13;29.83;;;;;;;;;;5033458;28;20027;-59
2023/01/10 00:46:33;;;;;;;32.17;29.88;;;;;;;;;;5033188;28;20029;-57
2023/01/10 00:48:59;;;;;;;32.60;30.30;;;;;;;;;;5033243;28;20026;-59
2023/01/10 00:51:25;;;;;;;31.13;28.92;;;;;;;;;;5031842;28;20047;-59
2023/01/10 00:53:51;;;;;;;31.75;29.45;;;;;;;;;;5032784;28;20025;-59
2023/01/10 00:56:17;;;;;;;32.13;29.83;;;;;;;;;;5033277;28;20025;-59
2023/01/10 00:58:43;;;;;;;31.77;29.50;;;;;;;;;;5032885;28;20033;-58
2023/01/10 01:01:09;;;;;;;31.02;28.83;;;;;;;;;;5032852;28;20065;-60
2023/01/10 01:03:35;;;;;;;32.25;29.95;;;;;;;;;;5031566;28;20022;-59
2023/01/10 01:06:05;;;;;;;32.97;30.58;;;;;;;;;;5031649;28;20026;-55
2023/01/10 01:08:31;;;;;;;32.55;30.25;;;;;;;;;;5032871;28;20033;-54
2023/01/10 01:10:57;;;;;;;30.75;28.48;;;;;;;;;;5032820;28;20040;-57
2023/01/10 01:13:24;;;;;;;30.48;28.27;;;;;;;;;;5032587;28;20022;-60
2023/01/10 01:15:50;;;;;;;30.17;27.98;;;;;;;;;;5031402;28;20033;-58
2023/01/10 01:18:17;;;;;;;30.63;28.42;;;;;;;;;;5032695;28;20030;-55
2023/01/10 01:20:47;;;;;;;30.50;28.30;;;;;;;;;;5032570;28;20029;-60
2023/01/10 01:23:15;;;;;;;30.90;28.70;;;;;;;;;;5032448;28;20021;-53
2023/01/10 01:25:42;;;;;;;30.70;28.50;;;;;;;;;;5032570;28;20032;-58
2023/01/10 01:28:08;;;;;;;31.15;28.92;;;;;;;;;;5032403;28;20440;-58
2023/01/10 01:30:35;;;;;;;29.60;27.40;;;;;;;;;;5031183;28;20060;-57
2023/01/10 01:33:01;;;;;;;27.55;25.45;;;;;;;;;;5031192;28;20137;-59
2023/01/10 01:35:27;;;;;;;26.95;24.85;;;;;;;;;;5032286;28;20458;-60
2023/01/10 01:37:53;;;;;;;27.80;25.63;;;;;;;;;;5032314;28;20092;-55
2023/01/10 01:40:20;;;;;;;26.38;24.27;;;;;;;;;;5031763;28;20033;-57
2023/01/10 01:42:46;;;;;;;25.08;23.08;;;;;;;;;;5030990;28;20025;-56
2023/01/10 01:45:30;;;;;;;25.30;23.30;;;;;;;;;;5031983;28;20026;-55
2023/01/10 01:47:56;;;;;;;25.92;23.80;;;;;;;;;;5030874;28;20080;-59
2023/01/10 01:50:25;;;;;;;60.13;25.55;;;;;;;;;;5032196;28;20477;-58
2023/01/10 01:52:53;;;;;;;24.98;22.98;;;;;;;;;;5032472;28;20034;-59
2023/01/10 01:55:19;;;;;;;24.10;22.15;;;;;;;;;;5032025;28;20036;-58
2023/01/10 01:57:45;;;;;;;23.80;21.90;;;;;;;;;;5031924;28;20022;-57
2023/01/10 02:00:12;;;;;;;23.20;21.30;;;;;;;;;;5030158;28;20037;-57
2023/01/10 02:02:40;;;;;;;22.55;20.65;;;;;;;;;;5031780;28;20099;-59
2023/01/10 02:05:09;;;;;;;22.63;20.73;;;;;;;;;;5031692;28;20084;-60
2023/01/10 02:07:37;;;;;;;23.85;21.95;;;;;;;;;;5032005;28;20028;-59
2023/01/10 02:10:03;;;;;;;24.10;22.10;;;;;;;;;;5032100;28;20389;-57
2023/01/10 02:12:30;;;;;;;22.77;20.88;;;;;;;;;;5031817;28;20028;-58
2023/01/10 02:14:56;;;;;;;22.70;20.80;;;;;;;;;;5030272;28;20072;-54
2023/01/10 02:17:22;;;;;;;23.05;21.10;;;;;;;;;;5031828;28;20029;-55
2023/01/10 02:19:51;;;;;;;21.10;19.20;;;;;;;;;;5031656;28;20083;-58
2023/01/10 02:22:28;;;;;;;20.02;18.23;;;;;;;;;;5031778;28;20125;-59
2023/01/10 02:25:03;;;;;;;19.40;17.60;;;;;;;;;;5031598;28;20549;-56
2023/01/10 02:27:52;;;;;;;20.02;18.13;;;;;;;;;;5031940;28;20029;-58
2023/01/10 02:30:24;;;;;;;18.65;16.85;;;;;;;;;;4994254;28;20067;-56
2023/01/10 02:33:04;;;;;;;18.40;16.60;;;;;;;;;;5031599;28;20037;-60
2023/01/10 02:35:39;;;;;;;17.48;15.77;;;;;;;;;;5031546;28;20394;-57
2023/01/10 02:38:28;;;;;;;18.08;16.30;;;;;;;;;;5031653;28;20424;-59
2023/01/10 02:41:06;;;;;;;18.95;17.13;;;;;;;;;;5031313;28;20096;-60
2023/01/10 02:43:35;;;;;;;19.02;17.13;;;;;;;;;;5031183;28;20022;-59
2023/01/10 02:46:09;;;;;;;17.10;15.40;;;;;;;;;;5031466;28;20022;-57
2023/01/10 02:48:35;;;;;;;17.00;15.30;;;;;;;;;;5033577;28;20026;-59
2023/01/10 02:51:03;;;;;;;18.77;16.98;;;;;;;;;;5035382;28;20103;-59
2023/01/10 02:53:29;;;;;;;16.83;15.13;;;;;;;;;;5035068;28;20030;-57
2023/01/10 02:56:07;;;;;;;17.05;15.35;;;;;;;;;;5033956;28;20029;-59
2023/01/10 02:58:52;;;;;;;17.92;16.13;;;;;;;;;;5034038;28;20029;-58
2023/01/10 03:01:18;;;;;;;17.50;15.80;;;;;;;;;;5033607;28;20099;-58
2023/01/10 03:04:03;;;;;;;17.35;15.65;;;;;;;;;;5033493;28;20026;-59
2023/01/10 03:06:34;;;;;;;17.05;15.35;;;;;;;;;;5035125;28;20037;-60
2023/01/10 03:09:26;;;;;;;17.30;15.60;;;;;;;;;;5035062;28;20551;-57
2023/01/10 03:11:54;;;;;;;18.08;16.27;;;;;;;;;;5028211;28;20033;-58
2023/01/10 03:14:22;;;;;;;18.13;16.33;;;;;;;;;;5033682;28;20388;-58
2023/01/10 03:17:03;;;;;;;18.30;16.50;;;;;;;;;;5035155;28;20021;-59
2023/01/10 03:19:32;;;;;;;18.17;16.38;;;;;;;;;;5034984;28;20030;-60
2023/01/10 03:22:00;;;;;;;17.92;16.13;;;;;;;;;;5035008;28;20025;-59
2023/01/10 03:24:30;;;;;;;17.40;15.70;;;;;;;;;;5033505;28;20021;-57
2023/01/10 03:27:22;;;;;;;17.27;15.57;;;;;;;;;;5034814;28;20021;-60
2023/01/10 03:29:57;;;;;;;18.80;17.00;;;;;;;;;;5031904;28;20443;-58
2023/01/10 03:32:26;;;;;;;15.82;14.13;;;;;;;;;;5034684;28;20030;-60
2023/01/10 03:34:52;;;;;;;15.30;13.50;;;;;;;;;;5034258;28;20116;-58
2023/01/10 03:37:27;;;;;;;14.77;12.20;;;;;;;;;;5033207;28;20393;-57
2023/01/10 03:39:58;;;;;;;14.73;11.98;;;;;;;;;;5034559;28;20037;-57
2023/01/10 03:44:42;;;;;;;15.10;13.13;;;;;;;;;;5034470;28;20032;-57
2023/01/10 03:45:19;;;;;;;14.70;11.80;;;;;;;;;;5034101;28;20095;-57
2023/01/10 03:47:48;;;;;;;14.90;12.02;;;;;;;;;;5034316;28;20025;-59
2023/01/10 03:50:19;;;;;;;14.80;12.10;;;;;;;;;;5034238;28;20025;-60
2023/01/10 03:52:45;;;;;;;14.43;11.07;;;;;;;;;;5034283;28;20036;-61
2023/01/10 03:55:12;;;;;;;14.60;11.45;;;;;;;;;;5034121;28;20101;-57
2023/01/10 03:57:41;;;;;;;14.40;10.88;;;;;;;;;;5034242;28;20029;-57
2023/01/10 04:00:07;;;;;;;14.50;11.25;;;;;;;;;;5031586;28;20033;-60
2023/01/10 04:02:33;;;;;;;14.50;11.35;;;;;;;;;;5033021;28;20104;-60
2023/01/10 04:04:59;;;;;;;14.40;11.10;;;;;;;;;;5033805;28;20121;-60
2023/01/10 04:07:25;;;;;;;14.48;11.00;;;;;;;;;;5034271;28;20021;-60
2023/01/10 04:09:51;;;;;;;14.52;11.38;;;;;;;;;;5034168;28;20036;-61
2023/01/10 04:12:17;;;;;;;14.48;11.13;;;;;;;;;;5033966;28;20033;-61
2023/01/10 04:14:47;;;;;;;14.30;10.90;;;;;;;;;;5032531;28;20033;-59
2023/01/10 04:17:13;;;;;;;20.25;14.45;;;;;;;;;;5034118;28;20076;-60
2023/01/10 04:19:39;;;;;;;14.50;11.25;;;;;;;;;;5034145;28;20512;-61
2023/01/10 04:22:05;;;;;;;14.70;11.60;;;;;;;;;;5034053;28;20104;-60
2023/01/10 04:24:32;;;;;;;15.35;12.60;;;;;;;;;;5032024;28;20029;-58
2023/01/10 04:26:58;;;;;;;15.65;13.95;;;;;;;;;;5033758;28;20379;-61
2023/01/10 04:29:24;;;;;;;14.80;11.90;;;;;;;;;;5033680;28;20033;-60
2023/01/10 04:31:50;;;;;;;14.70;11.80;;;;;;;;;;5033495;28;20022;-59
2023/01/10 04:34:19;;;;;;;14.90;12.25;;;;;;;;;;5032901;28;20551;-58
2023/01/10 04:36:45;;;;;;;14.57;11.25;;;;;;;;;;5033286;28;20021;-55
2023/01/10 04:39:11;;;;;;;14.52;11.32;;;;;;;;;;5033173;28;20025;-59
2023/01/10 04:41:37;;;;;;;14.38;11.07;;;;;;;;;;5033078;28;20021;-57
2023/01/10 04:44:03;;;;;;;14.32;10.77;;;;;;;;;;5031618;28;20025;-58
2023/01/10 04:46:29;;;;;;;14.10;10.10;;;;;;;;;;5033559;28;20378;-58
2023/01/10 04:48:57;;;;;;;14.18;10.35;;;;;;;;;;5031853;28;20022;-60
2023/01/10 04:51:23;;;;;;;14.30;10.75;;;;;;;;;;5033145;28;20096;-59
2023/01/10 04:53:49;;;;;;;14.15;10.40;;;;;;;;;;5032662;28;20481;-60
2023/01/10 04:56:19;;;;;;;14.18;10.55;;;;;;;;;;5032850;28;20104;-60
2023/01/10 04:58:45;;;;;;;15.40;11.77;;;;;;;;;;5031647;28;20120;-60
2023/01/10 05:01:13;;;;;;;55.15;13.32;;;;;;;;;;5032777;28;20454;-57
2023/01/10 05:03:39;;;;;;;14.30;10.75;;;;;;;;;;5032545;28;20021;-59
2023/01/10 05:06:06;;;;;;;14.50;11.23;;;;;;;;;;5032741;28;20025;-59
2023/01/10 05:08:32;;;;;;;14.27;10.52;;;;;;;;;;5032510;28;20026;-60
2023/01/10 05:10:58;;;;;;;14.60;11.55;;;;;;;;;;5032157;28;20033;-60
2023/01/10 05:13:25;;;;;;;14.52;11.30;;;;;;;;;;5032654;28;20413;-57
2023/01/10 05:15:57;;;;;;;14.80;11.88;;;;;;;;;;5032635;28;20029;-58
2023/01/10 05:18:24;;;;;;;14.45;11.13;;;;;;;;;;5032858;28;20572;-59
2023/01/10 05:20:50;;;;;;;14.70;11.85;;;;;;;;;;5032453;28;20438;-60
2023/01/10 05:23:16;;;;;;;14.52;11.30;;;;;;;;;;5030824;28;20029;-60
2023/01/10 05:25:43;;;;;;;14.82;11.73;;;;;;;;;;5032421;28;20033;-60
2023/01/10 05:28:09;;;;;;;14.65;11.68;;;;;;;;;;5032513;28;20025;-60
2023/01/10 05:30:35;;;;;;;18.42;12.77;;;;;;;;;;5030663;28;20029;-59
2023/01/10 05:33:03;;;;;;;14.65;11.80;;;;;;;;;;5032418;28;20036;-60
2023/01/10 05:35:29;;;;;;;14.75;11.80;;;;;;;;;;5032288;28;20032;-57
2023/01/10 05:37:55;;;;;;;14.98;12.48;;;;;;;;;;5031063;28;20508;-59
2023/01/10 05:40:21;;;;;;;14.32;10.85;;;;;;;;;;5031233;28;20136;-59
2023/01/10 05:42:47;;;;;;;14.70;11.82;;;;;;;;;;5032021;28;20057;-59
2023/01/10 05:45:13;;;;;;;14.50;11.20;;;;;;;;;;5031723;28;20044;-59
2023/01/10 05:47:39;;;;;;;14.70;11.60;;;;;;;;;;5032044;28;20537;-61
2023/01/10 05:50:05;;;;;;;14.57;11.48;;;;;;;;;;5032062;28;20113;-61
2023/01/10 05:52:31;;;;;;;14.70;11.73;;;;;;;;;;5031967;28;20040;-60
2023/01/10 05:54:57;;;;;;;14.60;11.35;;;;;;;;;;5030322;28;20026;-59
2023/01/10 05:57:23;;;;;;;14.60;11.50;;;;;;;;;;5027647;28;20049;-60
2023/01/10 05:59:50;;;;;;;15.07;11.60;;;;;;;;;;5031411;28;20057;-58
2023/01/10 06:02:16;;;;;;;14.52;11.40;;;;;;;;;;5027538;22;20050;-58
2023/01/10 06:04:42;;;;;;;20.20;13.32;;;;;;;;;;5007734;28;20103;-63
2023/01/10 06:07:08;;;;;;;14.40;11.00;;;;;;;;;;4991733;28;20033;-62
2023/01/10 06:09:34;;;;;;;14.50;11.30;;;;;;;;;;4992191;28;20030;-54
2023/01/10 06:12:00;;;;;;;14.70;11.90;;;;;;;;;;4992199;28;20471;-56
2023/01/10 06:14:26;;;;;;;14.55;11.30;;;;;;;;;;4990787;28;20033;-63
2023/01/10 06:16:52;;;;;;;14.68;11.80;;;;;;;;;;4992295;28;20484;-64
2023/01/10 06:19:18;;;;;;;14.55;11.38;;;;;;;;;;4990490;28;20129;-61
2023/01/10 06:21:44;;;;;;;14.40;11.00;;;;;;;;;;4989831;28;20245;-64
2023/01/10 06:24:10;;;;;;;14.38;10.82;;;;;;;;;;4990082;28;20029;-62
2023/01/10 06:26:36;;;;;;;14.77;12.20;;;;;;;;;;4990301;28;20053;-61
2023/01/10 06:29:02;;;;;;;14.52;11.30;;;;;;;;;;4990778;28;20372;-63
2023/01/10 06:31:28;;;;;;;14.57;11.43;;;;;;;;;;4998642;28;20090;-61
2023/01/10 06:33:54;;;;;;;14.55;11.30;;;;;;;;;;5011285;28;20021;-62
2023/01/10 06:36:20;;;;;;;14.60;11.32;;;;;;;;;;5010945;28;20037;-64
2023/01/10 06:38:46;;;;;;;14.75;11.75;;;;;;;;;;5011394;28;20508;-61
2023/01/10 06:41:12;;;;;;;14.70;11.88;;;;;;;;;;5010694;28;20071;-60
2023/01/10 06:43:49;;;;;;;15.18;12.43;;;;;;;;;;5010501;28;20072;-61
2023/01/10 06:46:16;;;;;;;14.60;11.60;;;;;;;;;;5009695;28;20397;-60
2023/01/10 06:48:44;;;;;;;15.10;12.43;;;;;;;;;;5009604;28;20427;-61
2023/01/10 06:51:11;;;;;;;14.68;11.55;;;;;;;;;;5010330;28;20041;-63
2023/01/10 06:53:37;;;;;;;14.70;12.00;;;;;;;;;;5010853;28;20589;-61
2023/01/10 06:56:04;;;;;;;14.70;11.75;;;;;;;;;;5010954;28;20116;-61
2023/01/10 06:58:30;;;;;;;14.68;11.48;;;;;;;;;;5010849;28;20474;-61
2023/01/10 07:00:56;;;;;;;14.40;10.93;;;;;;;;;;5010654;28;20033;-63
2023/01/10 07:03:22;;;;;;;17.90;14.30;;;;;;;;;;5010679;28;20106;-64
2023/01/10 07:05:49;;;;;;;14.35;10.85;;;;;;;;;;5010822;28;20033;-64
2023/01/10 07:08:15;;;;;;;14.68;11.60;;;;;;;;;;5010639;28;20028;-61
2023/01/10 07:10:42;;;;;;;14.63;11.65;;;;;;;;;;5009724;28;20401;-64
2023/01/10 07:13:08;;;;;;;14.60;11.50;;;;;;;;;;5010693;28;20025;-63
2023/01/10 07:15:34;;;;;;;14.60;11.48;;;;;;;;;;5009325;28;20066;-61
2023/01/10 07:18:00;;;;;;;14.45;11.13;;;;;;;;;;5009053;28;20129;-64
2023/01/10 07:20:26;;;;;;;14.70;11.95;;;;;;;;;;5009238;28;20386;-62
2023/01/10 07:22:56;;;;;;;14.43;11.05;;;;;;;;;;5009885;28;20029;-60
2023/01/10 07:25:22;;;;;;;16.55;13.07;;;;;;;;;;5010038;28;20026;-60
2023/01/10 07:27:48;;;;;;;14.48;11.05;;;;;;;;;;5010394;28;20022;-62
2023/01/10 07:30:14;;;;;;;14.40;10.85;;;;;;;;;;5009121;28;20046;-62
2023/01/10 07:32:40;;;;;;;13.93;9.85;;;;;;;;;;5003532;28;20136;-62
2023/01/10 07:35:06;;;;;;;13.90;9.55;;;;;;;;;;4994323;28;20065;-54
2023/01/10 07:37:33;;;;;;;14.13;10.20;;;;;;;;;;4992743;28;20030;-62
2023/01/10 07:39:59;;;;;;;14.30;10.80;;;;;;;;;;4992879;28;20502;-61
2023/01/10 07:42:25;;;;;;;14.02;9.93;;;;;;;;;;4993200;28;20070;-64
2023/01/10 07:44:51;;;;;;;14.50;10.70;;;;;;;;;;4994079;28;20037;-64
2023/01/10 07:47:17;;;;;;;14.00;9.98;;;;;;;;;;4994296;28;20067;-63
2023/01/10 07:49:43;;;;;;;13.88;9.60;;;;;;;;;;4993768;28;20030;-64
2023/01/10 07:52:09;;;;;;;13.93;9.60;;;;;;;;;;4994180;28;20024;-56
2023/01/10 07:54:35;;;;;;;13.88;9.50;;;;;;;;;;4992170;28;20033;-61
2023/01/10 07:57:02;;;;;;;13.70;8.95;;;;;;;;;;4992724;28;20018;-62
2023/01/10 07:59:28;;;;;;;13.65;8.82;;;;;;;;;;4996360;28;20113;-62
2023/01/10 08:01:54;;;;;;;13.63;8.80;;;;;;;;;;5012951;28;20034;-64
2023/01/10 08:04:20;;;;;;;13.70;8.90;;;;;;;;;;5012363;28;20022;-57
2023/01/10 08:06:46;;;;;;;13.60;8.63;;;;;;;;;;5012414;28;20050;-64
2023/01/10 08:09:12;;;;;;;13.68;8.98;;;;;;;;;;5013747;28;20014;-61
2023/01/10 08:11:38;;;;;;;13.70;9.30;;;;;;;;;;5013798;28;20018;-62
2023/01/10 08:14:04;;;;;;;13.68;8.93;;;;;;;;;;5012420;28;20030;-63
2023/01/10 08:16:30;;;;;;;13.70;9.02;;;;;;;;;;5012478;28;20038;-65
2023/01/10 08:18:56;;;;;;;13.90;9.65;;;;;;;;;;5013641;28;20036;-63
2023/01/10 08:21:23;;;;;;;13.80;9.13;;;;;;;;;;5013905;28;20487;-63
2023/01/10 08:23:50;;;;;;;13.90;9.48;;;;;;;;;;5013627;28;20033;-63
2023/01/10 08:26:16;;;;;;;13.95;9.73;;;;;;;;;;5013597;28;20052;-63
2023/01/10 08:28:42;;;;;;;13.82;9.40;;;;;;;;;;5013435;28;20022;-62
2023/01/10 08:31:09;;;;;;;14.38;9.52;;;;;;;;;;5013499;28;20387;-65
2023/01/10 08:33:39;;;;;;;13.55;8.55;;;;;;;;;;5012164;28;20029;-66
2023/01/10 08:36:05;;;;;;;14.15;10.07;;;;;;;;;;5013433;28;20084;-65
2023/01/10 08:38:31;;;;;;;14.00;9.23;;;;;;;;;;5012286;28;20426;-65
2023/01/10 08:40:57;;;;;;;13.60;8.80;;;;;;;;;;5013941;28;20045;-67
2023/01/10 08:43:23;;;;;;;13.80;9.23;;;;;;;;;;5015387;28;20030;-67
2023/01/10 08:45:49;;;;;;;13.73;9.20;;;;;;;;;;5013572;28;20025;-66
2023/01/10 08:48:15;;;;;;;13.68;8.90;;;;;;;;;;5013165;28;20057;-68
2023/01/10 08:50:41;;;;;;;13.73;9.10;;;;;;;;;;5012686;28;20022;-67
2023/01/10 08:53:08;;;;;;;14.45;10.32;;;;;;;;;;5004325;28;20065;-66
2023/01/10 08:55:34;;;;;;;13.80;9.15;;;;;;;;;;5013310;28;20021;-67
2023/01/10 08:58:00;;;;;;;13.70;9.10;;;;;;;;;;5011710;28;20022;-67
2023/01/10 09:00:27;;;;;;;13.73;9.05;;;;;;;;;;5012781;28;20381;-63
2023/01/10 09:02:53;;;;;;;13.43;8.35;;;;;;;;;;5012682;28;20041;-65
2023/01/10 09:05:19;;;;;;;13.60;8.80;;;;;;;;;;5012590;28;20049;-64
2023/01/10 09:07:45;;;;;;;15.57;9.50;;;;;;;;;;5012948;28;20033;-66
2023/01/10 09:10:11;;;;;;;13.52;8.50;;;;;;;;;;5011566;28;20137;-66
2023/01/10 09:12:56;;;;;;;13.80;9.15;;;;;;;;;;5011293;28;20040;-66
2023/01/10 09:15:32;;;;;;;13.30;8.02;;;;;;;;;;5012390;28;20107;-66
2023/01/10 09:17:59;;;;;;;13.32;8.27;;;;;;;;;;5011514;28;20026;-65
2023/01/10 09:20:26;;;;;;;14.25;9.52;;;;;;;;;;5010778;28;20474;-60
2023/01/10 09:22:53;;;;;;;13.38;8.00;;;;;;;;;;5012545;28;20096;-64
2023/01/10 09:25:19;;;;;;;13.57;8.50;;;;;;;;;;5012504;28;20032;-64
2023/01/10 09:27:45;;;;;;;13.50;8.40;;;;;;;;;;5010894;28;20136;-64
2023/01/10 09:30:11;;;;;;;13.43;8.20;;;;;;;;;;5012254;28;20040;-64
2023/01/10 09:32:37;;;;;;;13.50;8.50;;;;;;;;;;5011878;28;20026;-64
2023/01/10 09:35:03;;;;;;;13.50;8.50;;;;;;;;;;5011566;28;20026;-64
2023/01/10 09:37:32;;;;;;;13.60;8.75;;;;;;;;;;5012950;28;20030;-64
2023/01/10 09:39:58;;;;;;;;;;;;;;;;;;5013189;28;20022;-64
2023/01/10 09:42:27;;;;;;;13.20;8.75;;;;;;;;;;5012545;28;20304;-64
2023/01/10 09:45:09;;;;;;;13.23;7.80;;;;;;;;;;5011988;28;20108;-64
2023/01/10 09:47:35;;;;;;;13.35;7.93;;;;;;;;;;5012116;28;20034;-65
2023/01/10 09:50:14;;;;;;;13.18;7.72;;;;;;;;;;5012048;28;20029;-65
2023/01/10 09:52:45;;;;;;;13.20;7.80;;;;;;;;;;5011965;28;20026;-65
2023/01/10 09:55:32;;;;;;;20.67;9.75;;;;;;;;;;5010144;28;20025;-64
2023/01/10 09:57:59;;;;;;;13.05;7.68;;;;;;;;;;5011842;28;20025;-66
2023/01/10 10:00:42;;;;;;;12.97;7.53;;;;;;;;;;5010233;28;20406;-65
2023/01/10 10:03:21;;;;;;;12.80;7.65;;;;;;;;;;5010840;28;20030;-63
2023/01/10 10:05:48;;;;;;;13.30;8.15;;;;;;;;;;5012224;28;20037;-62
2023/01/10 10:08:16;;;;;;;13.48;8.40;;;;;;;;;;5010762;28;20026;-65
2023/01/10 10:11:01;;;;;;;13.20;7.80;;;;;;;;;;5012121;28;20513;-64
2023/01/10 10:13:41;;;;;;;13.00;7.60;;;;;;;;;;5011827;28;20514;-65
2023/01/10 10:16:25;;;;;;;15.48;10.07;;;;;;;;;;5011578;28;20037;-63
2023/01/10 10:19:03;;;;;;;12.75;7.43;;;;;;;;;;5010737;28;20026;-60
2023/01/10 10:21:54;;;;;;;13.00;8.27;;;;;;;;;;5011764;28;20052;-64
2023/01/10 10:24:39;;;;;;;13.02;7.95;;;;;;;;;;5011700;28;20030;-66
2023/01/10 10:27:08;;;;;;;13.38;8.50;;;;;;;;;;5011553;28;20026;-64
2023/01/10 10:29:52;;;;;;;11.55;6.80;;;;;;;;;;5010351;28;20018;-64
2023/01/10 10:32:31;;;;;;;12.65;7.38;;;;;;;;;;5010356;28;20030;-67
2023/01/10 10:35:02;;;;;;;12.40;7.20;;;;;;;;;;5011494;28;20025;-65
2023/01/10 10:37:33;;;;;;;20.83;11.50;;;;;;;;;;5010276;28;20398;-65
2023/01/10 10:40:04;;;;;;;11.82;6.95;;;;;;;;;;5011960;28;20080;-64
2023/01/10 10:42:33;;;;;;;13.15;7.70;;;;;;;;;;5011948;28;20084;-63
2023/01/10 10:45:03;;;;;;;14.65;9.35;;;;;;;;;;5010120;28;20028;-64
2023/01/10 10:47:33;;;;;;;15.63;9.25;;;;;;;;;;5013263;28;20041;-65
2023/01/10 10:50:32;;;;;;;12.77;7.55;;;;;;;;;;5010152;28;20486;-66
2023/01/10 10:52:59;;;;;;;12.55;7.30;;;;;;;;;;4973596;28;20418;-65
2023/01/10 10:55:29;;;;;;;26.30;9.77;;;;;;;;;;4992141;28;20034;-65
2023/01/10 10:57:55;;;;;;;14.45;8.48;;;;;;;;;;4992193;28;20034;-64
2023/01/10 11:00:22;;;;;;;11.82;7.00;;;;;;;;;;5002695;28;20041;-63
2023/01/10 11:02:58;;;;;;;11.77;6.93;;;;;;;;;;5011180;28;20026;-63
2023/01/10 11:05:31;;;;;;;12.25;7.40;;;;;;;;;;5009776;28;20441;-65
2023/01/10 11:08:01;;;;;;;12.10;7.10;;;;;;;;;;5010286;28;20111;-65
2023/01/10 11:10:33;;;;;;;12.75;7.97;;;;;;;;;;5012224;28;20030;-64
2023/01/10 11:13:01;;;;;;;12.77;7.90;;;;;;;;;;5012067;28;20033;-66
2023/01/10 11:15:39;;;;;;;12.43;7.30;;;;;;;;;;5011879;28;20029;-65
2023/01/10 11:18:06;;;;;;;13.30;7.95;;;;;;;;;;5013267;28;20023;-65
2023/01/10 11:20:33;;;;;;;13.20;7.97;;;;;;;;;;5013168;28;20026;-65
2023/01/10 11:22:59;;;;;;;11.93;7.30;;;;;;;;;;5013465;28;20478;-65
2023/01/10 11:25:25;;;;;;;11.52;6.80;;;;;;;;;;5014483;28;20026;-65
2023/01/10 11:27:51;;;;;;;12.40;7.80;;;;;;;;;;5014320;28;20390;-65
2023/01/10 11:30:26;;;;;;;28.30;14.77;;;;;;;;;;5014498;28;20029;-65
2023/01/10 11:33:02;;;;;;;29.48;16.73;;;;;;;;;;5014010;28;20390;-63
2023/01/10 11:35:34;;;;;;;33.15;14.35;;;;;;;;;;5014574;28;20080;-65
2023/01/10 11:38:28;;;;;;;27.52;14.25;;;;;;;;;;5014709;28;20022;-66
2023/01/10 11:41:01;;;;;;;36.38;13.15;;;;;;;;;;5014410;28;20033;-65
2023/01/10 11:43:29;;;;;;;34.35;14.25;;;;;;;;;;5012860;28;20022;-62
2023/01/10 11:45:57;;;;;;;27.15;12.32;;;;;;;;;;5014400;28;20045;-67
2023/01/10 11:48:33;;;;;;;24.10;12.38;;;;;;;;;;5014198;28;20058;-66
2023/01/10 11:50:59;;;;;;;34.45;13.68;;;;;;;;;;5014351;28;20565;-64
2023/01/10 11:53:34;;;;;;;31.98;12.43;;;;;;;;;;5012597;28;20029;-66
2023/01/10 11:56:00;;;;;;;32.38;12.95;;;;;;;;;;5014288;28;20034;-67
2023/01/10 11:58:30;;;;;;;28.38;12.02;;;;;;;;;;5014064;28;20120;-62
2023/01/10 12:00:59;;;;;;;28.05;13.35;;;;;;;;;;5013360;28;20363;-63
2023/01/10 12:03:31;;;;;;;30.73;12.68;;;;;;;;;;5013128;28;20026;-63
2023/01/10 12:06:02;;;;;;;26.42;11.45;;;;;;;;;;5013526;28;20026;-60
2023/01/10 12:08:32;;;;;;;32.38;12.23;;;;;;;;;;5012747;28;20030;-65
2023/01/10 12:11:03;;;;;;;28.83;12.80;;;;;;;;;;5012417;28;20054;-65
2023/01/10 12:13:30;;;;;;;27.05;12.13;;;;;;;;;;5010744;28;20033;-66
2023/01/10 12:16:17;;;;;;;34.57;12.70;;;;;;;;;;5002441;28;20030;-67
2023/01/10 12:18:43;;;;;;;30.77;13.38;;;;;;;;;;4986822;28;20057;-66
2023/01/10 12:21:10;;;;;;;27.05;12.32;;;;;;;;;;4991679;28;20026;-66
2023/01/10 12:23:40;;;;;;;31.00;11.23;;;;;;;;;;4992872;28;20318;-64
2023/01/10 12:26:07;;;;;;;29.38;12.75;;;;;;;;;;4993724;28;20034;-66
2023/01/10 12:28:34;;;;;;;25.92;10.98;;;;;;;;;;4994059;28;20030;-66
2023/01/10 12:31:01;;;;;;;23.83;10.57;;;;;;;;;;4994553;28;20026;-66
2023/01/10 12:33:33;;;;;;;32.67;11.50;;;;;;;;;;4994208;28;20106;-65
2023/01/10 12:36:05;;;;;;;23.92;12.45;;;;;;;;;;4994004;28;20036;-66
2023/01/10 12:44:14;;;;;;;24.08;10.57;;;;;;;;;;4994616;28;20093;-65
2023/01/10 12:46:59;;;;;;;28.65;11.90;;;;;;;;;;4993156;28;20025;-65
2023/01/10 12:49:37;;;;;;;28.70;13.15;;;;;;;;;;4994809;28;20077;-61
2023/01/10 12:52:10;;;;;;;29.10;10.90;;;;;;;;;;4997464;28;20092;-65
2023/01/10 12:54:36;;;;;;;24.02;10.23;;;;;;;;;;5000911;28;20034;-65
2023/01/10 12:57:05;;;;;;;24.58;11.10;;;;;;;;;;5014251;28;20277;-65
2023/01/10 12:59:36;;;;;;;29.15;12.23;;;;;;;;;;5015470;28;20422;-64
2023/01/10 13:02:02;;;;;;;24.83;10.65;;;;;;;;;;5016706;28;20038;-64
2023/01/10 13:04:31;;;;;;;27.73;10.90;;;;;;;;;;5015799;28;20531;-63
2023/01/10 13:06:57;;;;;;;26.45;10.57;;;;;;;;;;5015334;28;20025;-65
2023/01/10 13:09:28;;;;;;;21.73;12.07;;;;;;;;;;5013409;28;20453;-66
2023/01/10 13:12:00;;;;;;;30.35;12.60;;;;;;;;;;5013483;28;20026;-65
2023/01/10 13:14:41;;;;;;;27.50;11.02;;;;;;;;;;5012293;28;20026;-65
2023/01/10 13:17:18;;;;;;;26.55;10.32;;;;;;;;;;5012723;28;20026;-66
2023/01/10 13:20:04;;;;;;;27.95;13.00;;;;;;;;;;5013001;28;20022;-64
2023/01/10 13:22:36;;;;;;;33.00;13.18;;;;;;;;;;5012696;28;20057;-65
2023/01/10 13:25:02;;;;;;;23.58;9.40;;;;;;;;;;5012858;28;20050;-64
2023/01/10 13:27:33;;;;;;;22.98;10.18;;;;;;;;;;5011425;28;20057;-66
2023/01/10 13:29:59;;;;;;;22.67;10.73;;;;;;;;;;5010804;28;20049;-63
2023/01/10 13:32:30;;;;;;;25.67;12.02;;;;;;;;;;5012193;28;20032;-64
2023/01/10 13:35:09;;;;;;;24.98;11.70;;;;;;;;;;5010870;28;20061;-65
2023/01/10 13:37:37;;;;;;;33.88;13.60;;;;;;;;;;5011134;28;20022;-65
2023/01/10 13:40:04;;;;;;;27.23;10.30;;;;;;;;;;5012269;28;20033;-65
2023/01/10 13:45:18;;;;;;;30.73;11.55;;;;;;;;;;5011973;28;20083;-65
2023/01/10 13:47:46;;;;;;;26.27;10.68;;;;;;;;;;4992455;28;20038;-65
2023/01/10 13:50:24;;;;;;;;;;;;;;;;;;;;;
2023/01/10 13:52:54;;;;;;;23.48;10.52;;;;;;;;;;4992423;28;20085;-63
2023/01/10 13:55:20;;;;;;;27.17;10.65;;;;;;;;;;4991918;28;20030;-64
2023/01/10 13:57:54;;;;;;;24.10;10.68;;;;;;;;;;4991348;28;20044;-66
2023/01/10 14:03:07;;;;;;;27.45;11.10;;;;;;;;;;5011897;28;20144;-66
2023/01/10 14:05:33;;;;;;;23.67;11.00;;;;;;;;;;5011832;28;20029;-64
2023/01/10 14:08:00;;;;;;;25.23;11.38;;;;;;;;;;5013084;28;20049;-65
2023/01/10 14:10:26;;;;;;;27.27;12.50;;;;;;;;;;5014544;28;20029;-65
2023/01/10 14:13:07;;;;;;;24.48;10.02;;;;;;;;;;5014510;28;20035;-65
2023/01/10 14:15:38;;;;;;;22.10;9.80;;;;;;;;;;5016056;28;20029;-65
2023/01/10 14:18:06;;;;;;;26.23;11.18;;;;;;;;;;5015650;28;20037;-66
2023/01/10 14:20:34;;;;;;;28.48;12.00;;;;;;;;;;5015058;28;20092;-65
2023/01/10 14:23:05;;;;;;;28.23;10.70;;;;;;;;;;5013813;28;20054;-65
2023/01/10 14:25:33;;;;;;;23.50;10.43;;;;;;;;;;5011462;28;20276;-65
2023/01/10 14:28:00;;;;;;;27.05;9.98;;;;;;;;;;5012544;28;20040;-62
2023/01/10 14:30:26;;;;;;;23.50;9.73;;;;;;;;;;5012201;28;20026;-64
2023/01/10 14:32:54;;;;;;;24.15;11.90;;;;;;;;;;5000178;28;20109;-64
2023/01/10 14:35:21;;;;;;;23.08;10.20;;;;;;;;;;4991476;28;20041;-64
2023/01/10 14:37:58;;;;;;;23.83;10.18;;;;;;;;;;4991640;28;20030;-64
2023/01/10 14:40:24;;;;;;;26.45;11.60;;;;;;;;;;4991101;28;20106;-67
2023/01/10 14:42:50;;;;;;;24.27;10.68;;;;;;;;;;4991728;28;20026;-64
2023/01/10 14:45:31;;;;;;;27.00;10.98;;;;;;;;;;4995393;28;20041;-64
2023/01/10 14:47:57;;;;;;;23.85;9.70;;;;;;;;;;4995846;28;20037;-65
2023/01/10 14:50:30;;;;;;;19.38;10.02;;;;;;;;;;4994717;28;20026;-67